sensor_id;sensor_type;location;lat;lon;timestamp;P1;durP1;ratioP1;P2;durP2;ratioP2
45434;SDS011;31183;47.404;8.500;2023-05-10T00:00:42;1.27;;;0.60;;
45434;SDS011;31183;47.404;8.500;2023-05-10T00:03:09;2.15;;;0.70;;
45434;SDS011;31183;47.404;8.500;2023-05-10T00:05:36;0.40;;;0.30;;
45434;SDS011;31183;47.404;8.500;2023-05-10T00:08:02;1.33;;;0.50;;
45434;SDS011;31183;47.404;8.500;2023-05-10T00:10:29;2.25;;;0.60;;
45434;SDS011;31183;47.404;8.500;2023-05-10T00:12:56;1.38;;;0.40;;
45434;SDS011;31183;47.404;8.500;2023-05-10T00:15:22;0.75;;;0.40;;
45434;SDS011;31183;47.404;8.500;2023-05-10T00:17:49;0.85;;;0.45;;
45434;SDS011;31183;47.404;8.500;2023-05-10T00:20:16;0.75;;;0.65;;
45434;SDS011;31183;47.404;8.500;2023-05-10T00:22:43;1.70;;;0.60;;
45434;SDS011;31183;47.404;8.500;2023-05-10T00:25:09;6.80;;;1.35;;
45434;SDS011;31183;47.404;8.500;2023-05-10T00:27:36;1.48;;;0.70;;
45434;SDS011;31183;47.404;8.500;2023-05-10T00:30:03;1.23;;;0.70;;
45434;SDS011;31183;47.404;8.500;2023-05-10T00:32:30;1.00;;;0.70;;
45434;SDS011;31183;47.404;8.500;2023-05-10T00:34:57;2.20;;;0.70;;
45434;SDS011;31183;47.404;8.500;2023-05-10T00:37:23;2.17;;;0.82;;
45434;SDS011;31183;47.404;8.500;2023-05-10T00:39:50;0.98;;;0.75;;
45434;SDS011;31183;47.404;8.500;2023-05-10T00:42:17;2.28;;;0.80;;
45434;SDS011;31183;47.404;8.500;2023-05-10T00:44:44;2.17;;;0.40;;
45434;SDS011;31183;47.404;8.500;2023-05-10T00:47:11;1.65;;;0.70;;
45434;SDS011;31183;47.404;8.500;2023-05-10T00:49:38;1.65;;;0.60;;
45434;SDS011;31183;47.404;8.500;2023-05-10T00:52:06;0.80;;;0.80;;
45434;SDS011;31183;47.404;8.500;2023-05-10T00:54:33;1.67;;;1.08;;
45434;SDS011;31183;47.404;8.500;2023-05-10T00:57:00;0.63;;;0.63;;
45434;SDS011;31183;47.404;8.500;2023-05-10T00:59:26;3.33;;;0.85;;
45434;SDS011;31183;47.404;8.500;2023-05-10T01:01:53;1.65;;;0.73;;
45434;SDS011;31183;47.404;8.500;2023-05-10T01:04:20;3.05;;;0.60;;
45434;SDS011;31183;47.404;8.500;2023-05-10T01:09:20;0.85;;;0.82;;
45434;SDS011;31183;47.404;8.500;2023-05-10T01:11:47;0.65;;;0.50;;
45434;SDS011;31183;47.404;8.500;2023-05-10T01:14:15;0.70;;;0.70;;
45434;SDS011;31183;47.404;8.500;2023-05-10T01:16:45;2.72;;;0.80;;
45434;SDS011;31183;47.404;8.500;2023-05-10T01:19:22;1.08;;;0.85;;
45434;SDS011;31183;47.404;8.500;2023-05-10T01:27:42;0.90;;;0.60;;
45434;SDS011;31183;47.404;8.500;2023-05-10T01:36:31;0.85;;;0.85;;
45434;SDS011;31183;47.404;8.500;2023-05-10T01:44:18;2.25;;;1.30;;
45434;SDS011;31183;47.404;8.500;2023-05-10T01:47:07;0.80;;;0.80;;
45434;SDS011;31183;47.404;8.500;2023-05-10T01:49:44;1.30;;;0.98;;
45434;SDS011;31183;47.404;8.500;2023-05-10T01:52:16;2.45;;;1.45;;
45434;SDS011;31183;47.404;8.500;2023-05-10T01:57:20;3.50;;;1.00;;
45434;SDS011;31183;47.404;8.500;2023-05-10T01:59:50;2.90;;;1.05;;
45434;SDS011;31183;47.404;8.500;2023-05-10T02:02:17;1.33;;;0.90;;
45434;SDS011;31183;47.404;8.500;2023-05-10T02:04:46;1.38;;;1.05;;
45434;SDS011;31183;47.404;8.500;2023-05-10T02:07:15;2.45;;;1.10;;
45434;SDS011;31183;47.404;8.500;2023-05-10T02:09:44;0.95;;;0.90;;
45434;SDS011;31183;47.404;8.500;2023-05-10T02:12:15;3.28;;;1.00;;
45434;SDS011;31183;47.404;8.500;2023-05-10T02:14:43;1.10;;;1.00;;
45434;SDS011;31183;47.404;8.500;2023-05-10T02:17:10;1.20;;;1.02;;
45434;SDS011;31183;47.404;8.500;2023-05-10T02:19:38;1.30;;;0.88;;
45434;SDS011;31183;47.404;8.500;2023-05-10T02:22:07;3.55;;;1.00;;
45434;SDS011;31183;47.404;8.500;2023-05-10T02:24:35;1.65;;;1.00;;
45434;SDS011;31183;47.404;8.500;2023-05-10T02:27:03;1.08;;;0.90;;
45434;SDS011;31183;47.404;8.500;2023-05-10T02:29:31;2.75;;;1.00;;
45434;SDS011;31183;47.404;8.500;2023-05-10T02:31:59;0.85;;;0.85;;
45434;SDS011;31183;47.404;8.500;2023-05-10T02:34:27;1.27;;;0.90;;
45434;SDS011;31183;47.404;8.500;2023-05-10T02:36:55;3.13;;;1.30;;
45434;SDS011;31183;47.404;8.500;2023-05-10T02:39:22;3.03;;;1.10;;
45434;SDS011;31183;47.404;8.500;2023-05-10T02:41:50;2.70;;;0.90;;
45434;SDS011;31183;47.404;8.500;2023-05-10T02:44:18;0.85;;;0.85;;
45434;SDS011;31183;47.404;8.500;2023-05-10T02:46:46;1.00;;;0.90;;
45434;SDS011;31183;47.404;8.500;2023-05-10T02:49:14;1.92;;;0.75;;
45434;SDS011;31183;47.404;8.500;2023-05-10T02:51:42;0.75;;;0.73;;
45434;SDS011;31183;47.404;8.500;2023-05-10T02:54:15;1.67;;;0.82;;
45434;SDS011;31183;47.404;8.500;2023-05-10T02:56:47;1.27;;;0.73;;
45434;SDS011;31183;47.404;8.500;2023-05-10T02:59:19;1.35;;;0.80;;
45434;SDS011;31183;47.404;8.500;2023-05-10T03:01:45;2.38;;;1.00;;
45434;SDS011;31183;47.404;8.500;2023-05-10T03:04:12;1.30;;;1.20;;
45434;SDS011;31183;47.404;8.500;2023-05-10T03:06:39;1.58;;;0.90;;
45434;SDS011;31183;47.404;8.500;2023-05-10T03:09:06;3.67;;;1.00;;
45434;SDS011;31183;47.404;8.500;2023-05-10T03:17:19;1.33;;;1.23;;
45434;SDS011;31183;47.404;8.500;2023-05-10T03:19:52;3.25;;;1.15;;
45434;SDS011;31183;47.404;8.500;2023-05-10T03:22:23;3.03;;;1.10;;
45434;SDS011;31183;47.404;8.500;2023-05-10T03:24:55;2.38;;;1.20;;
45434;SDS011;31183;47.404;8.500;2023-05-10T03:27:23;2.63;;;1.73;;
45434;SDS011;31183;47.404;8.500;2023-05-10T03:29:52;3.05;;;1.33;;
45434;SDS011;31183;47.404;8.500;2023-05-10T03:32:20;3.15;;;1.50;;
45434;SDS011;31183;47.404;8.500;2023-05-10T03:34:47;2.58;;;1.50;;
45434;SDS011;31183;47.404;8.500;2023-05-10T03:37:14;2.42;;;1.75;;
45434;SDS011;31183;47.404;8.500;2023-05-10T03:39:41;2.67;;;1.58;;
45434;SDS011;31183;47.404;8.500;2023-05-10T03:42:07;2.50;;;1.38;;
45434;SDS011;31183;47.404;8.500;2023-05-10T03:44:34;4.60;;;1.52;;
45434;SDS011;31183;47.404;8.500;2023-05-10T03:47:01;2.40;;;1.63;;
45434;SDS011;31183;47.404;8.500;2023-05-10T03:49:27;1.67;;;1.58;;
45434;SDS011;31183;47.404;8.500;2023-05-10T03:51:54;4.75;;;1.92;;
45434;SDS011;31183;47.404;8.500;2023-05-10T03:54:21;4.78;;;1.80;;
45434;SDS011;31183;47.404;8.500;2023-05-10T03:56:47;3.78;;;2.53;;
45434;SDS011;31183;47.404;8.500;2023-05-10T03:59:14;2.58;;;1.70;;
45434;SDS011;31183;47.404;8.500;2023-05-10T04:01:41;4.35;;;2.20;;
45434;SDS011;31183;47.404;8.500;2023-05-10T04:04:07;2.45;;;1.83;;
45434;SDS011;31183;47.404;8.500;2023-05-10T04:06:34;2.17;;;1.80;;
45434;SDS011;31183;47.404;8.500;2023-05-10T04:09:01;2.22;;;2.00;;
45434;SDS011;31183;47.404;8.500;2023-05-10T04:11:30;2.67;;;1.58;;
45434;SDS011;31183;47.404;8.500;2023-05-10T04:13:56;2.83;;;1.85;;
45434;SDS011;31183;47.404;8.500;2023-05-10T04:16:23;2.78;;;2.03;;
45434;SDS011;31183;47.404;8.500;2023-05-10T04:18:50;3.65;;;1.70;;
45434;SDS011;31183;47.404;8.500;2023-05-10T04:21:16;2.13;;;1.80;;
45434;SDS011;31183;47.404;8.500;2023-05-10T04:23:43;2.75;;;1.50;;
45434;SDS011;31183;47.404;8.500;2023-05-10T04:26:09;2.95;;;1.92;;
45434;SDS011;31183;47.404;8.500;2023-05-10T04:28:36;2.65;;;1.45;;
45434;SDS011;31183;47.404;8.500;2023-05-10T04:31:03;1.95;;;1.73;;
45434;SDS011;31183;47.404;8.500;2023-05-10T04:33:31;2.47;;;2.05;;
45434;SDS011;31183;47.404;8.500;2023-05-10T04:35:58;2.10;;;1.90;;
45434;SDS011;31183;47.404;8.500;2023-05-10T04:38:25;3.40;;;1.52;;
45434;SDS011;31183;47.404;8.500;2023-05-10T04:40:53;2.88;;;1.63;;
45434;SDS011;31183;47.404;8.500;2023-05-10T04:43:19;5.10;;;1.80;;
45434;SDS011;31183;47.404;8.500;2023-05-10T04:45:46;3.05;;;1.58;;
45434;SDS011;31183;47.404;8.500;2023-05-10T04:48:13;1.60;;;1.50;;
45434;SDS011;31183;47.404;8.500;2023-05-10T04:50:39;2.25;;;1.70;;
45434;SDS011;31183;47.404;8.500;2023-05-10T04:53:06;4.55;;;1.75;;
45434;SDS011;31183;47.404;8.500;2023-05-10T04:55:32;1.42;;;1.33;;
45434;SDS011;31183;47.404;8.500;2023-05-10T04:57:59;1.42;;;1.33;;
45434;SDS011;31183;47.404;8.500;2023-05-10T05:00:26;1.60;;;1.20;;
45434;SDS011;31183;47.404;8.500;2023-05-10T05:02:53;1.40;;;1.30;;
45434;SDS011;31183;47.404;8.500;2023-05-10T05:05:19;1.30;;;1.20;;
45434;SDS011;31183;47.404;8.500;2023-05-10T05:07:46;2.35;;;1.35;;
45434;SDS011;31183;47.404;8.500;2023-05-10T05:10:13;1.90;;;1.60;;
45434;SDS011;31183;47.404;8.500;2023-05-10T05:12:40;1.38;;;1.27;;
45434;SDS011;31183;47.404;8.500;2023-05-10T05:15:06;3.17;;;1.50;;
45434;SDS011;31183;47.404;8.500;2023-05-10T05:17:35;1.40;;;1.30;;
45434;SDS011;31183;47.404;8.500;2023-05-10T05:20:02;2.42;;;1.33;;
45434;SDS011;31183;47.404;8.500;2023-05-10T05:22:29;1.98;;;1.40;;
45434;SDS011;31183;47.404;8.500;2023-05-10T05:24:56;1.92;;;1.65;;
45434;SDS011;31183;47.404;8.500;2023-05-10T05:27:24;2.28;;;1.40;;
45434;SDS011;31183;47.404;8.500;2023-05-10T05:29:55;4.00;;;1.33;;
45434;SDS011;31183;47.404;8.500;2023-05-10T05:32:23;1.75;;;1.65;;
45434;SDS011;31183;47.404;8.500;2023-05-10T05:34:50;7.18;;;1.65;;
45434;SDS011;31183;47.404;8.500;2023-05-10T05:37:18;2.65;;;1.80;;
45434;SDS011;31183;47.404;8.500;2023-05-10T05:39:46;1.95;;;1.60;;
45434;SDS011;31183;47.404;8.500;2023-05-10T05:42:13;2.92;;;1.70;;
45434;SDS011;31183;47.404;8.500;2023-05-10T05:44:40;3.55;;;1.30;;
45434;SDS011;31183;47.404;8.500;2023-05-10T05:47:07;3.05;;;1.95;;
45434;SDS011;31183;47.404;8.500;2023-05-10T05:49:33;4.05;;;1.48;;
45434;SDS011;31183;47.404;8.500;2023-05-10T05:52:00;1.65;;;1.55;;
45434;SDS011;31183;47.404;8.500;2023-05-10T05:54:28;1.77;;;1.15;;
45434;SDS011;31183;47.404;8.500;2023-05-10T05:56:55;3.13;;;1.17;;
45434;SDS011;31183;47.404;8.500;2023-05-10T05:59:26;2.38;;;1.65;;
45434;SDS011;31183;47.404;8.500;2023-05-10T06:01:53;1.10;;;1.00;;
45434;SDS011;31183;47.404;8.500;2023-05-10T06:04:20;1.85;;;1.42;;
45434;SDS011;31183;47.404;8.500;2023-05-10T06:06:47;1.83;;;1.52;;
45434;SDS011;31183;47.404;8.500;2023-05-10T06:09:13;2.83;;;1.70;;
45434;SDS011;31183;47.404;8.500;2023-05-10T06:11:40;1.58;;;1.40;;
45434;SDS011;31183;47.404;8.500;2023-05-10T06:14:07;2.53;;;1.60;;
45434;SDS011;31183;47.404;8.500;2023-05-10T06:16:34;2.97;;;1.35;;
45434;SDS011;31183;47.404;8.500;2023-05-10T06:19:01;2.30;;;1.70;;
45434;SDS011;31183;47.404;8.500;2023-05-10T06:21:28;3.28;;;1.95;;
45434;SDS011;31183;47.404;8.500;2023-05-10T06:23:55;3.08;;;1.80;;
45434;SDS011;31183;47.404;8.500;2023-05-10T06:26:21;2.40;;;1.75;;
45434;SDS011;31183;47.404;8.500;2023-05-10T06:28:48;3.90;;;1.98;;
45434;SDS011;31183;47.404;8.500;2023-05-10T06:31:14;4.53;;;1.80;;
45434;SDS011;31183;47.404;8.500;2023-05-10T06:33:42;2.70;;;1.23;;
45434;SDS011;31183;47.404;8.500;2023-05-10T06:36:08;1.73;;;1.05;;
45434;SDS011;31183;47.404;8.500;2023-05-10T06:38:35;1.40;;;1.30;;
45434;SDS011;31183;47.404;8.500;2023-05-10T06:41:02;1.13;;;1.00;;
45434;SDS011;31183;47.404;8.500;2023-05-10T06:43:28;1.90;;;1.10;;
45434;SDS011;31183;47.404;8.500;2023-05-10T06:45:55;2.75;;;0.90;;
45434;SDS011;31183;47.404;8.500;2023-05-10T06:48:22;2.88;;;1.00;;
45434;SDS011;31183;47.404;8.500;2023-05-10T06:50:48;1.00;;;0.80;;
45434;SDS011;31183;47.404;8.500;2023-05-10T06:53:15;5.85;;;1.20;;
45434;SDS011;31183;47.404;8.500;2023-05-10T06:55:42;1.58;;;1.15;;
45434;SDS011;31183;47.404;8.500;2023-05-10T06:58:08;7.28;;;1.30;;
45434;SDS011;31183;47.404;8.500;2023-05-10T07:00:35;1.88;;;0.80;;
45434;SDS011;31183;47.404;8.500;2023-05-10T07:03:05;1.27;;;0.70;;
45434;SDS011;31183;47.404;8.500;2023-05-10T07:05:32;1.88;;;1.00;;
45434;SDS011;31183;47.404;8.500;2023-05-10T07:07:58;1.55;;;1.10;;
45434;SDS011;31183;47.404;8.500;2023-05-10T07:10:26;2.95;;;1.05;;
45434;SDS011;31183;47.404;8.500;2023-05-10T07:12:52;1.02;;;0.70;;
45434;SDS011;31183;47.404;8.500;2023-05-10T07:15:19;0.85;;;0.73;;
45434;SDS011;31183;47.404;8.500;2023-05-10T07:17:46;2.17;;;0.95;;
45434;SDS011;31183;47.404;8.500;2023-05-10T07:20:12;1.33;;;0.98;;
45434;SDS011;31183;47.404;8.500;2023-05-10T07:22:39;2.03;;;1.10;;
45434;SDS011;31183;47.404;8.500;2023-05-10T07:25:06;1.70;;;1.27;;
45434;SDS011;31183;47.404;8.500;2023-05-10T07:27:33;2.55;;;1.30;;
45434;SDS011;31183;47.404;8.500;2023-05-10T07:29:59;1.27;;;1.00;;
45434;SDS011;31183;47.404;8.500;2023-05-10T07:32:26;4.43;;;0.95;;
45434;SDS011;31183;47.404;8.500;2023-05-10T07:34:53;2.28;;;1.05;;
45434;SDS011;31183;47.404;8.500;2023-05-10T07:37:20;1.15;;;0.77;;
45434;SDS011;31183;47.404;8.500;2023-05-10T07:39:46;1.88;;;1.08;;
45434;SDS011;31183;47.404;8.500;2023-05-10T07:42:13;2.85;;;1.70;;
45434;SDS011;31183;47.404;8.500;2023-05-10T07:44:40;1.95;;;1.20;;
45434;SDS011;31183;47.404;8.500;2023-05-10T07:47:06;3.10;;;1.10;;
45434;SDS011;31183;47.404;8.500;2023-05-10T07:49:33;2.85;;;1.33;;
45434;SDS011;31183;47.404;8.500;2023-05-10T07:51:59;5.30;;;1.30;;
45434;SDS011;31183;47.404;8.500;2023-05-10T07:54:26;3.13;;;1.40;;
45434;SDS011;31183;47.404;8.500;2023-05-10T07:56:52;2.67;;;1.30;;
45434;SDS011;31183;47.404;8.500;2023-05-10T07:59:19;2.83;;;2.10;;
45434;SDS011;31183;47.404;8.500;2023-05-10T08:01:46;3.30;;;1.30;;
45434;SDS011;31183;47.404;8.500;2023-05-10T08:04:12;2.95;;;1.45;;
45434;SDS011;31183;47.404;8.500;2023-05-10T08:06:39;2.65;;;1.27;;
45434;SDS011;31183;47.404;8.500;2023-05-10T08:09:06;6.22;;;1.70;;
45434;SDS011;31183;47.404;8.500;2023-05-10T08:11:33;2.95;;;1.48;;
45434;SDS011;31183;47.404;8.500;2023-05-10T08:14:00;2.92;;;1.65;;
45434;SDS011;31183;47.404;8.500;2023-05-10T08:16:27;1.75;;;1.27;;
45434;SDS011;31183;47.404;8.500;2023-05-10T08:18:55;3.65;;;1.45;;
45434;SDS011;31183;47.404;8.500;2023-05-10T08:21:21;5.65;;;1.52;;
45434;SDS011;31183;47.404;8.500;2023-05-10T08:23:48;6.97;;;1.95;;
45434;SDS011;31183;47.404;8.500;2023-05-10T08:26:15;3.88;;;2.47;;
45434;SDS011;31183;47.404;8.500;2023-05-10T08:28:41;6.07;;;1.95;;
45434;SDS011;31183;47.404;8.500;2023-05-10T08:31:08;5.57;;;1.40;;
45434;SDS011;31183;47.404;8.500;2023-05-10T08:33:35;5.20;;;1.40;;
45434;SDS011;31183;47.404;8.500;2023-05-10T08:36:01;3.28;;;1.27;;
45434;SDS011;31183;47.404;8.500;2023-05-10T08:38:28;1.70;;;1.17;;
45434;SDS011;31183;47.404;8.500;2023-05-10T08:40:55;5.10;;;1.92;;
45434;SDS011;31183;47.404;8.500;2023-05-10T08:43:28;2.83;;;1.40;;
45434;SDS011;31183;47.404;8.500;2023-05-10T08:45:56;3.35;;;1.63;;
45434;SDS011;31183;47.404;8.500;2023-05-10T08:48:24;3.35;;;1.40;;
45434;SDS011;31183;47.404;8.500;2023-05-10T08:50:52;3.33;;;1.60;;
45434;SDS011;31183;47.404;8.500;2023-05-10T08:53:24;2.38;;;1.40;;
45434;SDS011;31183;47.404;8.500;2023-05-10T08:55:53;6.60;;;1.55;;
45434;SDS011;31183;47.404;8.500;2023-05-10T08:58:21;3.20;;;1.30;;
45434;SDS011;31183;47.404;8.500;2023-05-10T09:00:48;5.43;;;1.50;;
45434;SDS011;31183;47.404;8.500;2023-05-10T09:03:16;1.92;;;1.80;;
45434;SDS011;31183;47.404;8.500;2023-05-10T09:05:44;2.35;;;1.45;;
45434;SDS011;31183;47.404;8.500;2023-05-10T09:08:10;4.78;;;1.90;;
45434;SDS011;31183;47.404;8.500;2023-05-10T09:10:39;8.82;;;2.83;;
45434;SDS011;31183;47.404;8.500;2023-05-10T09:13:06;2.53;;;1.55;;
45434;SDS011;31183;47.404;8.500;2023-05-10T09:15:34;3.75;;;1.63;;
45434;SDS011;31183;47.404;8.500;2023-05-10T09:18:00;5.32;;;1.98;;
45434;SDS011;31183;47.404;8.500;2023-05-10T09:20:28;2.65;;;1.98;;
45434;SDS011;31183;47.404;8.500;2023-05-10T09:22:55;4.78;;;1.30;;
45434;SDS011;31183;47.404;8.500;2023-05-10T09:25:21;3.05;;;2.08;;
45434;SDS011;31183;47.404;8.500;2023-05-10T09:27:48;3.17;;;1.70;;
45434;SDS011;31183;47.404;8.500;2023-05-10T09:30:37;4.03;;;2.35;;
45434;SDS011;31183;47.404;8.500;2023-05-10T09:33:02;2.63;;;1.70;;
45434;SDS011;31183;47.404;8.500;2023-05-10T09:35:31;4.60;;;2.00;;
45434;SDS011;31183;47.404;8.500;2023-05-10T09:38:04;4.88;;;1.70;;
45434;SDS011;31183;47.404;8.500;2023-05-10T09:40:31;6.75;;;2.10;;
45434;SDS011;31183;47.404;8.500;2023-05-10T09:42:59;4.53;;;1.70;;
45434;SDS011;31183;47.404;8.500;2023-05-10T09:45:33;5.78;;;2.63;;
45434;SDS011;31183;47.404;8.500;2023-05-10T09:48:04;6.40;;;1.60;;
45434;SDS011;31183;47.404;8.500;2023-05-10T09:50:31;7.90;;;2.47;;
45434;SDS011;31183;47.404;8.500;2023-05-10T09:52:59;4.38;;;1.70;;
45434;SDS011;31183;47.404;8.500;2023-05-10T09:55:38;7.57;;;1.70;;
45434;SDS011;31183;47.404;8.500;2023-05-10T09:58:05;5.25;;;1.88;;
45434;SDS011;31183;47.404;8.500;2023-05-10T10:00:36;6.70;;;2.17;;
45434;SDS011;31183;47.404;8.500;2023-05-10T10:03:14;5.40;;;1.50;;
45434;SDS011;31183;47.404;8.500;2023-05-10T10:05:43;4.38;;;1.60;;
45434;SDS011;31183;47.404;8.500;2023-05-10T10:08:10;4.65;;;2.00;;
45434;SDS011;31183;47.404;8.500;2023-05-10T10:10:38;4.40;;;1.90;;
45434;SDS011;31183;47.404;8.500;2023-05-10T10:13:11;5.45;;;2.45;;
45434;SDS011;31183;47.404;8.500;2023-05-10T10:15:38;4.22;;;2.22;;
45434;SDS011;31183;47.404;8.500;2023-05-10T10:18:05;3.67;;;1.60;;
45434;SDS011;31183;47.404;8.500;2023-05-10T10:20:32;5.95;;;1.60;;
45434;SDS011;31183;47.404;8.500;2023-05-10T10:22:59;4.05;;;1.85;;
45434;SDS011;31183;47.404;8.500;2023-05-10T10:25:26;4.90;;;1.35;;
45434;SDS011;31183;47.404;8.500;2023-05-10T10:30:35;4.03;;;1.38;;
45434;SDS011;31183;47.404;8.500;2023-05-10T10:36:00;4.32;;;1.85;;
45434;SDS011;31183;47.404;8.500;2023-05-10T10:49:32;1.70;;;1.60;;
45434;SDS011;31183;47.404;8.500;2023-05-10T10:54:38;3.53;;;2.35;;
45434;SDS011;31183;47.404;8.500;2023-05-10T10:57:11;3.60;;;2.00;;
45434;SDS011;31183;47.404;8.500;2023-05-10T10:59:43;4.78;;;1.73;;
45434;SDS011;31183;47.404;8.500;2023-05-10T11:02:10;3.08;;;1.70;;
45434;SDS011;31183;47.404;8.500;2023-05-10T11:04:56;6.32;;;1.65;;
45434;SDS011;31183;47.404;8.500;2023-05-10T11:07:23;3.45;;;1.27;;
45434;SDS011;31183;47.404;8.500;2023-05-10T11:09:50;5.82;;;1.20;;
45434;SDS011;31183;47.404;8.500;2023-05-10T11:12:17;2.15;;;1.60;;
45434;SDS011;31183;47.404;8.500;2023-05-10T11:14:49;3.15;;;1.38;;
45434;SDS011;31183;47.404;8.500;2023-05-10T11:17:50;4.07;;;1.48;;
45434;SDS011;31183;47.404;8.500;2023-05-10T11:20:09;4.43;;;1.52;;
45434;SDS011;31183;47.404;8.500;2023-05-10T11:22:52;5.30;;;1.40;;
45434;SDS011;31183;47.404;8.500;2023-05-10T11:25:26;14.10;;;2.25;;
45434;SDS011;31183;47.404;8.500;2023-05-10T11:27:54;4.18;;;1.55;;
45434;SDS011;31183;47.404;8.500;2023-05-10T11:30:21;3.05;;;1.58;;
45434;SDS011;31183;47.404;8.500;2023-05-10T11:32:47;6.93;;;1.30;;
45434;SDS011;31183;47.404;8.500;2023-05-10T11:35:14;3.50;;;1.38;;
45434;SDS011;31183;47.404;8.500;2023-05-10T11:37:40;2.58;;;1.35;;
45434;SDS011;31183;47.404;8.500;2023-05-10T11:40:09;5.28;;;1.48;;
45434;SDS011;31183;47.404;8.500;2023-05-10T11:42:37;4.88;;;1.30;;
45434;SDS011;31183;47.404;8.500;2023-05-10T11:45:04;3.75;;;1.50;;
45434;SDS011;31183;47.404;8.500;2023-05-10T11:47:31;3.58;;;1.38;;
45434;SDS011;31183;47.404;8.500;2023-05-10T11:49:58;2.53;;;1.08;;
45434;SDS011;31183;47.404;8.500;2023-05-10T11:52:26;1.70;;;0.90;;
45434;SDS011;31183;47.404;8.500;2023-05-10T11:54:52;2.55;;;1.00;;
45434;SDS011;31183;47.404;8.500;2023-05-10T11:57:20;2.95;;;1.30;;
45434;SDS011;31183;47.404;8.500;2023-05-10T11:59:54;4.45;;;1.42;;
45434;SDS011;31183;47.404;8.500;2023-05-10T12:02:22;4.53;;;1.27;;
45434;SDS011;31183;47.404;8.500;2023-05-10T12:04:50;5.55;;;1.42;;
45434;SDS011;31183;47.404;8.500;2023-05-10T12:07:17;4.80;;;1.52;;
45434;SDS011;31183;47.404;8.500;2023-05-10T12:09:44;4.38;;;1.55;;
45434;SDS011;31183;47.404;8.500;2023-05-10T12:12:16;5.53;;;2.22;;
45434;SDS011;31183;47.404;8.500;2023-05-10T12:14:43;2.15;;;1.45;;
45434;SDS011;31183;47.404;8.500;2023-05-10T12:17:12;5.05;;;1.35;;
45434;SDS011;31183;47.404;8.500;2023-05-10T12:19:39;3.30;;;1.63;;
45434;SDS011;31183;47.404;8.500;2023-05-10T12:22:07;5.85;;;1.55;;
45434;SDS011;31183;47.404;8.500;2023-05-10T12:24:34;6.25;;;1.27;;
45434;SDS011;31183;47.404;8.500;2023-05-10T12:27:04;3.65;;;1.52;;
45434;SDS011;31183;47.404;8.500;2023-05-10T12:29:34;2.75;;;1.65;;
45434;SDS011;31183;47.404;8.500;2023-05-10T12:32:01;5.43;;;1.75;;
45434;SDS011;31183;47.404;8.500;2023-05-10T12:34:32;3.88;;;1.80;;
45434;SDS011;31183;47.404;8.500;2023-05-10T12:37:01;3.63;;;1.67;;
45434;SDS011;31183;47.404;8.500;2023-05-10T12:39:40;5.88;;;1.92;;
45434;SDS011;31183;47.404;8.500;2023-05-10T12:42:08;3.28;;;1.92;;
45434;SDS011;31183;47.404;8.500;2023-05-10T12:44:35;4.55;;;2.03;;
45434;SDS011;31183;47.404;8.500;2023-05-10T12:47:02;6.03;;;1.80;;
45434;SDS011;31183;47.404;8.500;2023-05-10T12:49:28;4.30;;;1.77;;
45434;SDS011;31183;47.404;8.500;2023-05-10T12:51:55;3.60;;;1.60;;
45434;SDS011;31183;47.404;8.500;2023-05-10T12:54:21;4.30;;;2.13;;
45434;SDS011;31183;47.404;8.500;2023-05-10T12:56:48;5.53;;;1.60;;
45434;SDS011;31183;47.404;8.500;2023-05-10T12:59:14;3.78;;;2.42;;
45434;SDS011;31183;47.404;8.500;2023-05-10T13:01:41;4.68;;;2.10;;
45434;SDS011;31183;47.404;8.500;2023-05-10T13:04:08;2.95;;;1.95;;
45434;SDS011;31183;47.404;8.500;2023-05-10T13:06:34;5.22;;;2.15;;
45434;SDS011;31183;47.404;8.500;2023-05-10T13:09:01;5.95;;;1.58;;
45434;SDS011;31183;47.404;8.500;2023-05-10T13:11:28;3.75;;;1.60;;
45434;SDS011;31183;47.404;8.500;2023-05-10T13:13:55;5.07;;;1.80;;
45434;SDS011;31183;47.404;8.500;2023-05-10T13:16:22;3.65;;;1.90;;
45434;SDS011;31183;47.404;8.500;2023-05-10T13:18:48;4.53;;;2.47;;
45434;SDS011;31183;47.404;8.500;2023-05-10T13:21:15;6.85;;;2.30;;
45434;SDS011;31183;47.404;8.500;2023-05-10T13:23:42;3.47;;;2.08;;
45434;SDS011;31183;47.404;8.500;2023-05-10T13:26:09;4.38;;;2.17;;
45434;SDS011;31183;47.404;8.500;2023-05-10T13:28:36;9.02;;;2.80;;
45434;SDS011;31183;47.404;8.500;2023-05-10T13:31:04;4.03;;;2.00;;
45434;SDS011;31183;47.404;8.500;2023-05-10T13:33:31;4.15;;;2.08;;
45434;SDS011;31183;47.404;8.500;2023-05-10T13:35:57;4.75;;;2.33;;
45434;SDS011;31183;47.404;8.500;2023-05-10T13:38:24;3.58;;;2.22;;
45434;SDS011;31183;47.404;8.500;2023-05-10T13:40:50;7.40;;;2.45;;
45434;SDS011;31183;47.404;8.500;2023-05-10T13:43:18;3.50;;;2.35;;
45434;SDS011;31183;47.404;8.500;2023-05-10T13:45:45;2.53;;;2.28;;
45434;SDS011;31183;47.404;8.500;2023-05-10T13:48:12;3.78;;;2.03;;
45434;SDS011;31183;47.404;8.500;2023-05-10T13:50:38;4.55;;;2.40;;
45434;SDS011;31183;47.404;8.500;2023-05-10T13:53:05;7.65;;;2.42;;
45434;SDS011;31183;47.404;8.500;2023-05-10T13:55:31;4.75;;;2.22;;
45434;SDS011;31183;47.404;8.500;2023-05-10T13:57:58;6.05;;;2.22;;
45434;SDS011;31183;47.404;8.500;2023-05-10T14:00:25;3.38;;;2.08;;
45434;SDS011;31183;47.404;8.500;2023-05-10T14:02:51;7.75;;;2.58;;
45434;SDS011;31183;47.404;8.500;2023-05-10T14:05:18;3.72;;;2.28;;
45434;SDS011;31183;47.404;8.500;2023-05-10T14:07:50;5.55;;;2.22;;
45434;SDS011;31183;47.404;8.500;2023-05-10T14:10:17;3.53;;;2.88;;
45434;SDS011;31183;47.404;8.500;2023-05-10T14:12:44;2.92;;;2.15;;
45434;SDS011;31183;47.404;8.500;2023-05-10T14:15:10;3.40;;;2.17;;
45434;SDS011;31183;47.404;8.500;2023-05-10T14:17:37;3.45;;;2.67;;
45434;SDS011;31183;47.404;8.500;2023-05-10T14:20:04;7.13;;;2.83;;
45434;SDS011;31183;47.404;8.500;2023-05-10T14:22:31;5.43;;;2.58;;
45434;SDS011;31183;47.404;8.500;2023-05-10T14:24:58;7.13;;;2.50;;
45434;SDS011;31183;47.404;8.500;2023-05-10T14:27:25;5.35;;;2.33;;
45434;SDS011;31183;47.404;8.500;2023-05-10T14:29:52;4.07;;;2.40;;
45434;SDS011;31183;47.404;8.500;2023-05-10T14:32:19;3.25;;;2.30;;
45434;SDS011;31183;47.404;8.500;2023-05-10T14:34:45;4.28;;;2.70;;
45434;SDS011;31183;47.404;8.500;2023-05-10T14:37:12;6.00;;;2.45;;
45434;SDS011;31183;47.404;8.500;2023-05-10T14:39:39;4.22;;;1.80;;
45434;SDS011;31183;47.404;8.500;2023-05-10T14:42:06;5.15;;;2.38;;
45434;SDS011;31183;47.404;8.500;2023-05-10T14:44:32;3.00;;;1.85;;
45434;SDS011;31183;47.404;8.500;2023-05-10T14:46:59;4.15;;;2.00;;
45434;SDS011;31183;47.404;8.500;2023-05-10T14:49:26;3.30;;;1.67;;
45434;SDS011;31183;47.404;8.500;2023-05-10T14:51:52;3.13;;;1.83;;
45434;SDS011;31183;47.404;8.500;2023-05-10T14:54:19;4.95;;;2.05;;
45434;SDS011;31183;47.404;8.500;2023-05-10T14:56:46;3.30;;;2.15;;
45434;SDS011;31183;47.404;8.500;2023-05-10T14:59:15;3.20;;;1.73;;
45434;SDS011;31183;47.404;8.500;2023-05-10T15:01:42;4.72;;;1.90;;
45434;SDS011;31183;47.404;8.500;2023-05-10T15:04:10;3.50;;;2.22;;
45434;SDS011;31183;47.404;8.500;2023-05-10T15:06:39;4.07;;;1.85;;
45434;SDS011;31183;47.404;8.500;2023-05-10T15:09:05;7.28;;;1.80;;
45434;SDS011;31183;47.404;8.500;2023-05-10T15:11:32;6.63;;;1.90;;
45434;SDS011;31183;47.404;8.500;2023-05-10T15:13:59;4.72;;;2.30;;
45434;SDS011;31183;47.404;8.500;2023-05-10T15:16:27;4.88;;;2.45;;
45434;SDS011;31183;47.404;8.500;2023-05-10T15:18:54;5.05;;;2.25;;
45434;SDS011;31183;47.404;8.500;2023-05-10T15:21:21;4.40;;;2.40;;
45434;SDS011;31183;47.404;8.500;2023-05-10T15:23:47;2.92;;;2.10;;
45434;SDS011;31183;47.404;8.500;2023-05-10T15:26:15;5.97;;;2.20;;
45434;SDS011;31183;47.404;8.500;2023-05-10T15:28:41;4.43;;;1.95;;
45434;SDS011;31183;47.404;8.500;2023-05-10T15:31:08;5.22;;;2.35;;
45434;SDS011;31183;47.404;8.500;2023-05-10T15:33:36;2.58;;;1.75;;
45434;SDS011;31183;47.404;8.500;2023-05-10T15:36:03;4.47;;;1.67;;
45434;SDS011;31183;47.404;8.500;2023-05-10T15:38:30;2.25;;;1.40;;